Data for 03/12/2005

Time Sea-Level Adjusted Pressure Absolute Pressure Temperature Relative Humidity Dew Point   
(mb) (inHg) (mb) (inHg) (C) (F) (%) (C) (F)
00:05 1012 29.88 841 24.83 12.4 54.3 17 -11.9 10.6
00:10 1012 29.88 841 24.83 12.3 54.1 17 -11.8 10.8
00:15 1012 29.88 841 24.83 12.1 53.7 19 -11.2 11.8
00:20 1012 29.88 842 24.86 11.9 53.3 20 -10.7 12.7
00:25 1012 29.88 842 24.86 11.7 53.1 17 -12.6 9.4
00:30 1012 29.88 841 24.83 12.1 53.8 17 -12.4 9.6
00:35 1012 29.88 841 24.83 12.3 54.1 16 -13 8.6
00:40 1012 29.88 841 24.83 12.4 54.2 16 -13.2 8.3
00:45 1012 29.88 841 24.83 12.6 54.7 15 -13.5 7.7
00:50 1012 29.88 841 24.83 12.8 55 15 -13.1 8.5
00:55 1012 29.88 841 24.83 12.4 54.4 17 -12.3 9.8
01:00 1012 29.88 841 24.83 11.9 53.3 19 -11.2 11.8
01:05 1012 29.88 841 24.83 11.2 52.1 20 -11.2 11.9
01:10 1012 29.88 841 24.83 10.8 51.4 20 -11.4 11.5
01:15 1012 29.88 841 24.83 10.6 51.2 20 -11.7 10.9
01:20 1012 29.88 841 24.83 10.6 51.1 19 -11.8 10.7
01:25 1012 29.88 841 24.83 10.5 50.9 20 -11.3 11.6
01:30 1012 29.88 841 24.83 10.3 50.5 21 -11.3 11.6
01:35 1012 29.88 841 24.83 9.9 49.9 23 -10.4 13.2
01:40 1012 29.88 841 24.83 9.3 48.7 23 -10.6 13
01:45 1012 29.88 841 24.83 9.2 48.6 24 -10.5 13.1
01:50 1012 29.88 841 24.83 9.2 48.5 24 -10.4 13.3
01:55 1012 29.88 841 24.83 9.1 48.5 24 -10.5 13.1
02:00 1012 29.88 841 24.83 9.2 48.6 24 -10.4 13.2
02:05 1012 29.88 841 24.83 9.1 48.4 24 -10.3 13.5
02:10 1012 29.88 841 24.83 9.1 48.4 24 -10.2 13.7
02:15 1012 29.88 841 24.83 9 48.2 25 -10.2 13.6
02:20 1012 29.88 841 24.83 8.9 48.1 25 -10.2 13.6
02:25 1012 29.88 841 24.83 8.8 47.9 25 -10.3 13.4
02:30 1012 29.88 841 24.83 8.8 47.8 25 -10.1 13.8
02:35 1012 29.88 841 24.83 8.7 47.6 26 -10 13.9
02:40 1012 29.88 841 24.83 8.5 47.2 27 -9.6 14.6
02:45 1012 29.88 841 24.83 8 46.5 27 -9.9 14.1
02:50 1012 29.88 841 24.83 7.7 45.9 27 -10.3 13.5
02:55 1012 29.88 841 24.83 7.7 45.8 27 -10.3 13.5
03:00 1012 29.88 841 24.83 7.7 45.9 27 -10.2 13.7
03:05 1012 29.88 841 24.83 7.9 46.1 27 -9.9 14.2
03:10 1012 29.88 841 24.83 7.8 46.1 27 -9.9 14.1
03:15 1012 29.88 841 24.83 8 46.5 26 -10.4 13.2
03:20 1012 29.88 841 24.83 8.5 47.2 25 -10.3 13.5
03:25 1012 29.88 841 24.83 8.5 47.2 25 -10.3 13.5
03:30 1012 29.88 841 24.83 8.7 47.7 24 -10.7 12.8
03:35 1012 29.88 841 24.83 8.9 48 24 -10.6 12.9
03:40 1012 29.88 841 24.83 9.1 48.3 24 -10.6 13
03:45 1012 29.88 841 24.83 9 48.3 23 -11.1 12.1
03:50 1012 29.88 841 24.83 9 48.2 24 -10.6 13
03:55 1012 29.88 841 24.83 8.9 47.9 25 -10.1 13.7
04:00 1012 29.88 841 24.83 8.6 47.6 26 -9.8 14.4
04:05 1012 29.88 841 24.83 8.5 47.3 26 -9.7 14.5
04:10 1012 29.88 841 24.83 8.3 46.9 29 -8.6 16.5
04:15 1012 29.88 841 24.83 8.1 46.5 31 -8.2 17.2
04:20 1012 29.88 841 24.83 7.8 46 32 -7.8 18
04:25 1012 29.88 841 24.83 7.3 45.2 35 -7.2 19
04:30 1012 29.88 841 24.83 7.1 44.8 37 -6.7 19.9
04:35 1012 29.88 841 24.83 7.2 44.9 37 -6.5 20.4
04:40 1012 29.88 842 24.86 6.9 44.5 41 -5.3 22.4
04:45 1013 29.91 842 24.86 5.6 42 55 -2.7 27.2
04:50 1013 29.91 842 24.86 3.5 38.3 64 -2.7 27.1
04:55 1013 29.91 842 24.86 2.3 36.2 67 -3.1 26.5
05:00 1013 29.91 842 24.86 2.1 35.8 67 -3.4 26
05:05 1013 29.91 843 24.89 1.8 35.2 68 -3.6 25.6
05:10 1014 29.94 843 24.89 1.5 34.7 69 -3.5 25.7
05:15 1014 29.94 843 24.89 1.3 34.3 70 -3.5 25.6
05:20 1014 29.94 843 24.89 1.2 34.1 71 -3.5 25.7
05:25 1014 29.94 843 24.89 1.1 33.9 71 -3.5 25.6
05:30 1014 29.94 843 24.89 0.9 33.7 72 -3.5 25.7
05:35 1014 29.94 843 24.89 0.9 33.6 73 -3.5 25.8
05:40 1014 29.94 843 24.89 0.8 33.4 74 -3.3 26.1
05:45 1014 29.94 843 24.89 0.5 32.9 77 -3.2 26.3
05:50 1014 29.94 843 24.89 0.3 32.5 79 -3 26.7
05:55 1014 29.94 843 24.89 0 32 81 -2.9 26.8
06:00 1014 29.94 843 24.89 -0.2 31.7 79 -3.3 26
06:05 1014 29.94 843 24.89 -0.2 31.6 81 -3.1 26.4
06:10 1014 29.94 843 24.89 -0.4 31.3 81 -3.3 26.1
06:15 1014 29.94 843 24.89 -0.5 31.2 80 -3.4 25.8
06:20 1014 29.94 844 24.92 -0.5 31 82 -3.2 26.3
06:25 1014 29.94 844 24.92 -0.7 30.8 84 -3 26.5
06:30 1014 29.94 844 24.92 -0.9 30.3 87 -2.9 26.8
06:35 1014 29.94 844 24.92 -1.2 29.9 89 -2.8 27
06:40 1014 29.94 844 24.92 -1.3 29.6 89 -2.9 26.9
06:45 1014 29.94 844 24.92 -1.4 29.4 90 -2.9 26.8
06:50 1014 29.94 844 24.92 -1.5 29.2 91 -2.8 26.9
06:55 1015 29.97 844 24.92 -1.6 29.1 92 -2.7 27.1
07:00 1015 29.97 844 24.92 -1.6 29 92 -2.8 27
07:05 1015 29.97 844 24.92 -1.6 29.1 91 -2.9 26.7
07:10 1015 29.97 844 24.92 -1.6 29.2 90 -3 26.6
07:15 1015 29.97 844 24.92 -1.6 29.2 90 -3 26.5
07:20 1015 29.97 844 24.92 -1.6 29.2 90 -3 26.6
07:25 1015 29.97 844 24.92 -1.6 29.1 90 -3.1 26.5
07:30 1015 29.97 844 24.92 -1.7 29 91 -2.9 26.7
07:35 1015 29.97 844 24.92 -1.7 28.9 92 -2.9 26.8
07:40 1015 29.97 844 24.92 -1.7 28.9 92 -2.9 26.8
07:45 1015 29.97 844 24.92 -1.8 28.8 93 -2.8 26.9
07:50 1015 29.97 844 24.92 -1.8 28.7 94 -2.7 27.1
07:55 1015 29.97 844 24.92 -1.8 28.7 93 -2.8 27
08:00 1015 29.97 844 24.92 -1.8 28.7 94 -2.7 27.2
08:05 1015 29.97 844 24.92 -1.9 28.7 95 -2.5 27.4
08:10 1015 29.97 844 24.92 -1.9 28.6 95 -2.6 27.4
08:15 1015 29.97 844 24.92 -1.9 28.5 95 -2.7 27.2
08:20 1015 29.97 844 24.92 -1.8 28.7 95 -2.6 27.4
08:25 1015 29.97 844 24.92 -1.9 28.6 95 -2.7 27.2
08:30 1015 29.97 844 24.92 -1.9 28.5 95 -2.7 27.2
08:35 1015 29.97 844 24.92 -1.8 28.7 93 -2.8 26.9
08:40 1015 29.97 844 24.92 -1.7 29 91 -2.9 26.7
08:45 1015 29.97 845 24.95 -1.6 29.2 89 -3.1 26.4
08:50 1015 29.97 845 24.95 -1.5 29.3 88 -3.2 26.2
08:55 1015 29.97 845 24.95 -1.4 29.5 88 -3.1 26.4
09:00 1015 29.97 845 24.95 -1.5 29.3 89 -3.1 26.4
09:05 1015 29.97 845 24.95 -1.5 29.2 90 -3 26.6
09:10 1015 29.97 844 24.92 -1.5 29.3 90 -3 26.6
09:15 1015 29.97 844 24.92 -1.4 29.5 87 -3.3 26.1
09:20 1015 29.97 845 24.95 -1.2 29.8 87 -3.2 26.2
09:25 1015 29.97 845 24.95 -1.3 29.7 86 -3.3 26.1
09:30 1016 30 845 24.95 -1.1 30 85 -3.3 26.1
09:35 1016 30 845 24.95 -1.2 29.9 85 -3.3 26
09:40 1016 30 845 24.95 -1.1 30 85 -3.4 26
09:45 1016 30 845 24.95 -1.1 30 85 -3.4 25.9
09:50 1016 30 845 24.95 -1 30.1 85 -3.2 26.3
09:55 1016 30 845 24.95 -1 30.3 84 -3.3 26.1
10:00 1016 30 845 24.95 -1 30.2 85 -3.1 26.4
10:05 1015 29.97 845 24.95 -0.9 30.3 84 -3.3 26
10:10 1016 30 845 24.95 -0.7 30.7 83 -3.2 26.3
10:15 1016 30 845 24.95 -0.4 31.3 79 -3.5 25.6
10:20 1015 29.97 845 24.95 -0.4 31.2 80 -3.5 25.6
10:25 1016 30 845 24.95 -0.1 31.8 77 -3.6 25.5
10:30 1016 30 845 24.95 -0.2 31.6 76 -3.9 25
10:35 1015 29.97 845 24.95 0 32.1 75 -3.9 25
10:40 1015 29.97 845 24.95 0.4 32.8 74 -3.7 25.4
10:45 1015 29.97 845 24.95 0.4 32.8 73 -3.8 25.2
10:50 1015 29.97 845 24.95 0.2 32.4 75 -3.7 25.4
10:55 1015 29.97 845 24.95 -0 32 75 -3.9 25
11:00 1015 29.97 845 24.95 -0 32 76 -3.8 25.1
11:05 1015 29.97 845 24.95 -0.1 31.8 75 -4 24.9
11:10 1016 30 845 24.95 -0.2 31.6 77 -3.8 25.2
11:15 1016 30 845 24.95 -0.3 31.5 76 -3.9 24.9
11:20 1016 30 845 24.95 -0.2 31.6 76 -3.9 25
11:25 1016 30 845 24.95 -0.3 31.5 77 -3.9 25
11:30 1016 30 845 24.95 -0.4 31.3 78 -3.8 25.2
11:35 1016 30 845 24.95 -0.3 31.5 86 -2.3 27.8
11:40 1016 30 845 24.95 -0.5 31.1 91 -1.8 28.7
11:45 1016 30 845 24.95 -0.6 31 91 -1.8 28.7
11:50 1016 30 845 24.95 -0.8 30.6 93 -1.7 29
11:55 1016 30 845 24.95 -0.6 30.9 93 -1.7 29
12:00 1016 30 845 24.95 -0.7 30.8 94 -1.5 29.4
12:05 1016 30 845 24.95 -0.9 30.4 95 -1.6 29.2
12:10 1016 30 846 24.98 -0.9 30.4 95 -1.6 29.2
12:15 1016 30 846 24.98 -0.6 30.9 95 -1.3 29.6
12:20 1016 30 846 24.98 -0.4 31.3 94 -1.2 29.8
12:25 1017 30.03 846 24.98 -0.4 31.3 94 -1.2 29.8
12:30 1017 30.03 846 24.98 -0.4 31.2 95 -1.1 30
12:35 1017 30.03 846 24.98 -0.3 31.5 94 -1.2 29.9
12:40 1017 30.03 846 24.98 0 32 91 -1.3 29.7
12:45 1017 30.03 846 24.98 0.2 32.4 89 -1.3 29.6
12:50 1017 30.03 846 24.98 0.3 32.5 89 -1.3 29.7
12:55 1017 30.03 846 24.98 0.2 32.4 89 -1.3 29.6
13:00 1017 30.03 846 24.98 0.4 32.8 88 -1.3 29.7
13:05 1017 30.03 846 24.98 0.6 33 87 -1.3 29.6
13:10 1017 30.03 846 24.98 0.6 33.1 86 -1.5 29.3
13:15 1017 30.03 846 24.98 1 33.8 84 -1.5 29.3
13:20 1017 30.03 846 24.98 0.9 33.6 86 -1.3 29.7
13:25 1017 30.03 846 24.98 0.5 32.9 86 -1.6 29.2
13:30 1017 30.03 846 24.98 0.3 32.5 85 -2 28.5
13:35 1017 30.03 846 24.98 0.1 32.2 84 -2.3 27.8
13:40 1017 30.03 846 24.98 0.3 32.5 80 -2.7 27.1
13:45 1017 30.03 846 24.98 0.4 32.6 77 -3.2 26.2
13:50 1017 30.03 846 24.98 0.5 32.8 77 -3.1 26.5
13:55 1017 30.03 846 24.98 0.4 32.7 78 -2.9 26.7
14:00 1017 30.03 846 24.98 0.3 32.5 80 -2.8 26.9
14:05 1017 30.03 846 24.98 0.2 32.4 80 -2.8 27
14:10 1017 30.03 847 25.01 -0.1 31.8 87 -2.1 28.3
14:15 1017 30.03 847 25.01 0.2 32.3 81 -2.8 27
14:20 1017 30.03 847 25.01 0.4 32.7 79 -2.9 26.8
14:25 1017 30.03 847 25.01 0.4 32.8 78 -3 26.5
14:30 1017 30.03 847 25.01 0.6 33.1 75 -3.4 25.9
14:35 1018 30.06 847 25.01 0.4 32.8 80 -2.7 27.2
14:40 1018 30.06 847 25.01 -0.1 31.9 83 -2.7 27.1
14:45 1018 30.06 847 25.01 0.1 32.2 83 -2.5 27.5
14:50 1018 30.06 847 25.01 0.1 32.1 83 -2.4 27.6
14:55 1018 30.06 847 25.01 0.3 32.5 79 -3 26.6
15:00 1018 30.06 847 25.01 0 32 79 -3.2 26.3
15:05 1018 30.06 847 25.01 -0.1 31.9 84 -2.5 27.5
15:10 1018 30.06 847 25.01 -0.4 31.3 85 -2.6 27.3
15:15 1018 30.06 847 25.01 -0.5 31.1 87 -2.4 27.7
15:20 1018 30.06 847 25.01 -0.3 31.5 81 -3.1 26.3
15:25 1018 30.06 847 25.01 -0.2 31.7 82 -2.9 26.8
15:30 1018 30.06 848 25.04 0.2 32.3 80 -2.8 26.9
15:35 1018 30.06 848 25.04 0.5 32.8 77 -3.1 26.4
15:40 1019 30.09 848 25.04 0.5 32.9 77 -3.1 26.4
15:45 1019 30.09 848 25.04 0.3 32.5 80 -2.8 27
15:50 1019 30.09 848 25.04 -0.2 31.6 84 -2.7 27.2
15:55 1019 30.09 848 25.04 -0.5 31 86 -2.6 27.3
16:00 1019 30.09 848 25.04 -0.6 31 87 -2.5 27.4
16:05 1019 30.09 848 25.04 -0.5 31.2 85 -2.7 27.1
16:10 1019 30.09 848 25.04 -0.2 31.6 81 -3.1 26.4
16:15 1019 30.09 848 25.04 -0.3 31.5 79 -3.4 25.8
16:20 1019 30.09 848 25.04 -0.2 31.7 80 -3.3 26.1
16:25 1019 30.09 848 25.04 -0.2 31.7 80 -3.2 26.3
16:30 1019 30.09 849 25.07 -0.1 31.7 80 -3.2 26.3
16:35 1020 30.12 849 25.07 0 32 81 -2.9 26.9
16:40 1020 30.12 849 25.07 -0.1 31.9 80 -3.2 26.3
16:45 1020 30.12 849 25.07 -0.1 31.8 82 -2.9 26.8
16:50 1020 30.12 849 25.07 -0.1 31.9 84 -2.5 27.5
16:55 1020 30.12 849 25.07 -0.3 31.5 84 -2.7 27.1
17:00 1020 30.12 849 25.07 -0.3 31.4 84 -2.7 27.1
17:05 1020 30.12 849 25.07 -0.3 31.4 85 -2.6 27.3
17:10 1020 30.12 849 25.07 -0.4 31.3 85 -2.6 27.4
17:15 1020 30.12 849 25.07 -0.4 31.3 84 -2.8 26.9
17:20 1020 30.12 849 25.07 -0.5 31 83 -3 26.6
17:25 1020 30.12 849 25.07 -0.6 31 81 -3.4 26
17:30 1020 30.12 849 25.07 -0.5 31.1 81 -3.4 25.8
17:35 1020 30.12 850 25.1 -0.4 31.2 78 -3.7 25.3
17:40 1020 30.12 850 25.1 -0.5 31.1 79 -3.8 25.2
17:45 1020 30.12 850 25.1 -0.5 31.1 79 -3.8 25.2
17:50 1021 30.15 850 25.1 -0.5 31 78 -3.9 24.9
17:55 1021 30.15 850 25.1 -0.5 31 78 -3.9 25
18:00 1021 30.15 850 25.1 -0.6 30.9 79 -3.9 25
18:05 1021 30.15 850 25.1 -0.6 30.9 78 -4 24.7
18:10 1021 30.15 850 25.1 -0.6 30.8 78 -4 24.8
18:15 1021 30.15 850 25.1 -0.8 30.6 78 -4.2 24.4
18:20 1021 30.15 850 25.1 -1.1 30 79 -4.4 24.1
18:25 1021 30.15 850 25.1 -1 30.2 78 -4.4 24
18:30 1021 30.15 850 25.1 -0.9 30.4 76 -4.6 23.8
18:35 1021 30.15 850 25.1 -0.9 30.4 77 -4.5 23.9
18:40 1021 30.15 850 25.1 -0.9 30.4 76 -4.5 23.8
18:45 1021 30.15 850 25.1 -0.9 30.4 76 -4.6 23.8
18:50 1021 30.15 850 25.1 -0.9 30.3 74 -5.1 22.9
18:55 1021 30.15 850 25.1 -1 30.2 73 -5.3 22.4
19:00 1021 30.15 851 25.13 -1 30.2 72 -5.4 22.3
19:05 1021 30.15 850 25.1 -1.1 30.1 72 -5.5 22
19:10 1021 30.15 851 25.13 -1.2 29.9 72 -5.7 21.8
19:15 1021 30.15 851 25.13 -1.1 30 72 -5.5 22.2
19:20 1021 30.15 851 25.13 -1.2 29.8 73 -5.5 22.1
19:25 1021 30.15 851 25.13 -1.4 29.5 74 -5.4 22.4
19:30 1022 30.18 851 25.13 -1.4 29.4 75 -5.3 22.5
19:35 1022 30.18 851 25.13 -1.5 29.3 76 -5.3 22.5
19:40 1022 30.18 851 25.13 -1.6 29.2 76 -5.3 22.5
19:45 1022 30.18 851 25.13 -1.6 29.2 75 -5.4 22.4
19:50 1022 30.18 851 25.13 -1.5 29.2 74 -5.5 22
19:55 1022 30.18 851 25.13 -1.6 29.1 76 -5.4 22.3
20:00 1022 30.18 851 25.13 -1.7 28.9 76 -5.4 22.3
20:05 1022 30.18 851 25.13 -2 28.5 76 -5.6 22
20:10 1022 30.18 851 25.13 -1.9 28.6 74 -5.9 21.3
20:15 1021 30.15 851 25.13 -1.7 28.9 72 -6.2 20.9
20:20 1021 30.15 851 25.13 -1.7 28.9 73 -5.9 21.3
20:25 1021 30.15 851 25.13 -1.8 28.7 73 -6 21.2
20:30 1022 30.18 851 25.13 -1.9 28.6 71 -6.4 20.5
20:35 1022 30.18 851 25.13 -1.9 28.5 72 -6.3 20.6
20:40 1022 30.18 851 25.13 -1.9 28.5 71 -6.6 20.1
20:45 1022 30.18 851 25.13 -1.9 28.6 71 -6.5 20.3
20:50 1022 30.18 851 25.13 -1.9 28.6 71 -6.4 20.4
20:55 1022 30.18 851 25.13 -1.9 28.6 72 -6.4 20.5
21:00 1022 30.18 851 25.13 -1.9 28.6 72 -6.3 20.6
21:05 1022 30.18 851 25.13 -1.8 28.8 72 -6.2 20.8
21:10 1022 30.18 851 25.13 -1.8 28.8 72 -6.2 20.9
21:15 1022 30.18 851 25.13 -1.9 28.7 73 -6.2 20.9
21:20 1022 30.18 851 25.13 -1.9 28.6 74 -6 21.2
21:25 1022 30.18 851 25.13 -1.9 28.5 74 -5.9 21.3
21:30 1022 30.18 851 25.13 -2 28.4 75 -5.8 21.5
21:35 1022 30.18 851 25.13 -2 28.5 75 -5.9 21.4
21:40 1022 30.18 851 25.13 -2 28.4 76 -5.7 21.7
21:45 1022 30.18 851 25.13 -2 28.4 76 -5.7 21.7
21:50 1022 30.18 851 25.13 -2 28.5 77 -5.5 22.1
21:55 1022 30.18 851 25.13 -2 28.4 78 -5.3 22.5
22:00 1022 30.18 851 25.13 -2.1 28.2 80 -5.1 22.8
22:05 1022 30.18 851 25.13 -2.2 28.1 81 -5 23
22:10 1022 30.18 851 25.13 -2.3 27.9 81 -5.1 22.9
22:15 1022 30.18 851 25.13 -2.2 28 82 -5 23
22:20 1022 30.18 852 25.16 -2.4 27.7 82 -5 22.9
22:25 1022 30.18 852 25.16 -2.4 27.6 83 -5 23
22:30 1022 30.18 852 25.16 -2.5 27.5 83 -5 23
22:35 1023 30.21 852 25.16 -2.6 27.3 83 -5.1 22.8
22:40 1023 30.21 852 25.16 -2.7 27.2 83 -5.1 22.7
22:45 1023 30.21 852 25.16 -2.7 27.2 83 -5.2 22.6
22:50 1023 30.21 852 25.16 -2.8 27 82 -5.4 22.4
22:55 1023 30.21 852 25.16 -2.7 27.1 82 -5.3 22.4
23:00 1023 30.21 852 25.16 -2.7 27.1 83 -5.3 22.5
23:05 1023 30.21 852 25.16 -2.8 27 83 -5.3 22.5
23:10 1023 30.21 852 25.16 -2.9 26.7 84 -5.3 22.5
23:15 1023 30.21 852 25.16 -2.9 26.7 83 -5.5 22.1
23:20 1023 30.21 852 25.16 -2.6 27.2 81 -5.4 22.3
23:25 1023 30.21 852 25.16 -2.5 27.4 81 -5.3 22.4
23:30 1023 30.21 852 25.16 -2.6 27.4 81 -5.3 22.4
23:35 1023 30.21 852 25.16 -2.7 27.1 83 -5.3 22.5
23:40 1023 30.21 852 25.16 -2.8 27 82 -5.4 22.3
23:45 1023 30.21 852 25.16 -2.8 26.9 83 -5.3 22.4
23:50 1023 30.21 852 25.16 -2.7 27.1 83 -5.3 22.5
23:55 1023 30.21 852 25.16 -2.7 27.2 80 -5.7 21.7
24:00 1023 30.21 852 25.16 -2.6 27.4 79 -5.7 21.7